Time;durP1;ratioP1;P1;durP2;ratioP2;P2;SDS_P1;SDS_P2;PMS_P1;PMS_P2;Temp;Humidity;BMP_temperature;BMP_pressure;BME280_temperature;BME280_humidity;BME280_pressure;Samples;Min_cycle;Max_cycle;Signal;HPM_P1;HPM_P2
2024/01/05 00:01:15;;;;;;;5.75;4.35;;;;;;;;;;5075879;28;20379;-82
2024/01/05 00:03:41;;;;;;;4.77;3.73;;;;;;;;;;5074292;28;20444;-82
2024/01/05 00:06:07;;;;;;;6.05;3.70;;;;;;;;;;5075945;28;20441;-82
2024/01/05 00:08:33;;;;;;;5.47;4.10;;;;;;;;;;5075872;28;20388;-82
2024/01/05 00:10:59;;;;;;;6.07;4.05;;;;;;;;;;5075809;28;20379;-83
2024/01/05 00:13:25;;;;;;;5.93;3.78;;;;;;;;;;5076308;28;20885;-82
2024/01/05 00:15:51;;;;;;;5.38;3.65;;;;;;;;;;5076156;28;20376;-83
2024/01/05 00:18:17;;;;;;;5.47;4.00;;;;;;;;;;5075631;28;20771;-82
2024/01/05 00:20:43;;;;;;;4.75;3.80;;;;;;;;;;5075295;28;20387;-83
2024/01/05 00:23:09;;;;;;;5.78;3.90;;;;;;;;;;5075606;28;20391;-83
2024/01/05 00:25:35;;;;;;;5.43;3.33;;;;;;;;;;5075399;28;20522;-82
2024/01/05 00:28:01;;;;;;;6.75;3.40;;;;;;;;;;5074981;28;20405;-83
2024/01/05 00:30:27;;;;;;;8.77;5.88;;;;;;;;;;5075612;28;20723;-83
2024/01/05 00:32:53;;;;;;;10.85;5.70;;;;;;;;;;5075570;28;20372;-83
2024/01/05 00:35:19;;;;;;;8.07;6.53;;;;;;;;;;5075766;28;20713;-82
2024/01/05 00:37:45;;;;;;;9.57;5.22;;;;;;;;;;5075303;28;20383;-83
2024/01/05 00:40:11;;;;;;;5.18;3.83;;;;;;;;;;5075612;28;20730;-83
2024/01/05 00:42:37;;;;;;;4.37;3.37;;;;;;;;;;5075348;28;20411;-83
2024/01/05 00:45:03;;;;;;;4.97;3.70;;;;;;;;;;5075279;28;20422;-83
2024/01/05 00:47:29;;;;;;;4.03;3.25;;;;;;;;;;5075808;28;20435;-82
2024/01/05 00:49:55;;;;;;;4.53;3.53;;;;;;;;;;5075390;28;20379;-83
2024/01/05 00:52:21;;;;;;;4.70;3.50;;;;;;;;;;5075702;28;20368;-83
2024/01/05 00:54:48;;;;;;;5.00;3.37;;;;;;;;;;5075812;28;20451;-83
2024/01/05 00:57:14;;;;;;;4.80;3.00;;;;;;;;;;5075959;28;20379;-82
2024/01/05 00:59:40;;;;;;;4.55;3.20;;;;;;;;;;5076180;28;20383;-84
2024/01/05 01:02:06;;;;;;;5.33;3.07;;;;;;;;;;5078801;28;20380;-83
2024/01/05 01:04:32;;;;;;;4.28;3.40;;;;;;;;;;5079663;28;20510;-83
2024/01/05 01:06:58;;;;;;;3.58;2.85;;;;;;;;;;5090972;28;20410;-84
2024/01/05 01:09:24;;;;;;;5.13;3.53;;;;;;;;;;5095626;28;20388;-83
2024/01/05 01:11:50;;;;;;;5.55;3.28;;;;;;;;;;5095717;28;20379;-83
2024/01/05 01:14:16;;;;;;;3.40;2.75;;;;;;;;;;5096007;28;20391;-83
2024/01/05 01:16:42;;;;;;;3.60;2.40;;;;;;;;;;5096084;28;20376;-83
2024/01/05 01:19:08;;;;;;;5.03;2.60;;;;;;;;;;5095397;28;20414;-83
2024/01/05 01:21:34;;;;;;;4.45;2.35;;;;;;;;;;5095299;28;20384;-83
2024/01/05 01:24:01;;;;;;;4.67;3.30;;;;;;;;;;5090893;28;20383;-84
2024/01/05 01:26:27;;;;;;;4.60;3.00;;;;;;;;;;5078313;28;20413;-84
2024/01/05 01:28:53;;;;;;;5.22;3.10;;;;;;;;;;5078360;28;20459;-84
2024/01/05 01:31:19;;;;;;;5.68;3.20;;;;;;;;;;5087616;28;20788;-84
2024/01/05 01:33:44;;;;;;;5.05;3.30;;;;;;;;;;5073298;28;20372;-84
2024/01/05 01:36:10;;;;;;;4.75;2.85;;;;;;;;;;5078089;28;20371;-84
2024/01/05 01:38:36;;;;;;;3.15;2.50;;;;;;;;;;5078278;28;20466;-84
2024/01/05 01:41:02;;;;;;;3.25;2.70;;;;;;;;;;5077728;28;20372;-84
2024/01/05 01:43:29;;;;;;;3.53;2.47;;;;;;;;;;5077498;28;20395;-84
2024/01/05 01:45:59;;;;;;;3.45;2.42;;;;;;;;;;5077305;28;20380;-83
2024/01/05 01:48:27;;;;;;;4.78;2.63;;;;;;;;;;5077009;28;20493;-84
2024/01/05 01:50:58;;;;;;;3.00;2.40;;;;;;;;;;5077892;28;20379;-84
2024/01/05 01:53:25;;;;;;;3.28;2.45;;;;;;;;;;5077361;28;20451;-84
2024/01/05 01:55:52;;;;;;;3.05;2.47;;;;;;;;;;5077419;28;20376;-84
2024/01/05 01:58:18;;;;;;;3.78;2.97;;;;;;;;;;5073854;28;20721;-84
2024/01/05 02:00:45;;;;;;;5.43;3.20;;;;;;;;;;5077123;28;20383;-84
2024/01/05 02:03:11;;;;;;;4.65;3.20;;;;;;;;;;5077068;28;20842;-82
2024/01/05 02:05:37;;;;;;;4.07;3.20;;;;;;;;;;5077340;28;20387;-84
2024/01/05 02:08:03;;;;;;;3.80;3.08;;;;;;;;;;5076463;28;20430;-84
2024/01/05 02:10:29;;;;;;;3.63;2.90;;;;;;;;;;5077095;28;20372;-84
2024/01/05 02:12:59;;;;;;;3.67;2.85;;;;;;;;;;5077084;28;20387;-84
2024/01/05 02:15:25;;;;;;;6.20;3.10;;;;;;;;;;5076414;28;20841;-84
2024/01/05 02:17:51;;;;;;;4.30;2.92;;;;;;;;;;5076611;28;20451;-84
2024/01/05 02:20:17;;;;;;;3.75;2.20;;;;;;;;;;5075917;28;20453;-84
2024/01/05 02:22:44;;;;;;;6.57;2.70;;;;;;;;;;5076567;28;20372;-84
2024/01/05 02:25:10;;;;;;;5.50;2.40;;;;;;;;;;5076815;28;20761;-84
2024/01/05 02:27:37;;;;;;;3.72;2.42;;;;;;;;;;5076066;28;20415;-84
2024/01/05 02:30:03;;;;;;;4.45;2.60;;;;;;;;;;5076337;28;20372;-84
2024/01/05 02:32:30;;;;;;;3.15;2.33;;;;;;;;;;5076182;28;20387;-83
2024/01/05 02:34:56;;;;;;;3.78;2.42;;;;;;;;;;5075652;28;20375;-84
2024/01/05 02:37:22;;;;;;;3.85;2.40;;;;;;;;;;5075431;28;20390;-84
2024/01/05 02:39:48;;;;;;;3.80;1.90;;;;;;;;;;5075960;28;20387;-84
2024/01/05 02:42:14;;;;;;;2.65;2.30;;;;;;;;;;5075791;28;20498;-84
2024/01/05 02:44:40;;;;;;;4.60;2.60;;;;;;;;;;5057587;28;20384;-84
2024/01/05 02:47:06;;;;;;;3.25;2.45;;;;;;;;;;5075553;28;20411;-84
2024/01/05 02:49:32;;;;;;;2.88;2.30;;;;;;;;;;5075297;28;20368;-83
2024/01/05 02:51:58;;;;;;;4.70;2.33;;;;;;;;;;5075829;28;20379;-84
2024/01/05 02:54:24;;;;;;;3.35;2.35;;;;;;;;;;5075480;28;20379;-83
2024/01/05 02:56:50;;;;;;;3.57;2.60;;;;;;;;;;5075307;28;20427;-84
2024/01/05 02:59:17;;;;;;;3.10;2.20;;;;;;;;;;5075694;28;20450;-83
2024/01/05 03:01:43;;;;;;;3.90;2.50;;;;;;;;;;5075326;28;20409;-84
2024/01/05 03:04:10;;;;;;;3.55;2.33;;;;;;;;;;5074086;28;20399;-83
2024/01/05 03:06:36;;;;;;;3.72;2.10;;;;;;;;;;5075060;28;20852;-83
2024/01/05 03:09:05;;;;;;;3.92;2.05;;;;;;;;;;5075260;28;20380;-84
2024/01/05 03:11:31;;;;;;;4.78;2.55;;;;;;;;;;5075247;28;20376;-84
2024/01/05 03:13:56;;;;;;;3.80;2.20;;;;;;;;;;5074956;28;20723;-84
2024/01/05 03:16:22;;;;;;;3.40;2.22;;;;;;;;;;5074785;28;20494;-83
2024/01/05 03:18:48;;;;;;;3.20;1.95;;;;;;;;;;5074119;28;20380;-84
2024/01/05 03:21:15;;;;;;;3.50;2.10;;;;;;;;;;5075195;28;20398;-83
2024/01/05 03:23:41;;;;;;;4.90;2.20;;;;;;;;;;5075169;28;20406;-84
2024/01/05 03:26:10;;;;;;;3.28;2.78;;;;;;;;;;5059722;28;20384;-83
2024/01/05 03:28:38;;;;;;;5.93;2.78;;;;;;;;;;5073457;28;20388;-83
2024/01/05 03:31:04;;;;;;;5.37;2.80;;;;;;;;;;5061190;28;20379;-83
2024/01/05 03:33:30;;;;;;;4.50;2.80;;;;;;;;;;5074805;28;20375;-84
2024/01/05 03:35:56;;;;;;;3.37;2.80;;;;;;;;;;5074415;28;20384;-83
2024/01/05 03:38:22;;;;;;;4.00;2.90;;;;;;;;;;5073780;28;20388;-83
2024/01/05 03:40:48;;;;;;;3.83;2.80;;;;;;;;;;5074760;28;20801;-83
2024/01/05 03:43:14;;;;;;;3.47;2.60;;;;;;;;;;5074434;28;20430;-83
2024/01/05 03:45:40;;;;;;;4.70;2.72;;;;;;;;;;5073574;28;20383;-83
2024/01/05 03:48:06;;;;;;;3.05;2.75;;;;;;;;;;5072229;28;20472;-83
2024/01/05 03:50:32;;;;;;;3.55;2.88;;;;;;;;;;5067912;28;20372;-83
2024/01/05 03:52:58;;;;;;;4.88;3.17;;;;;;;;;;5074144;28;20737;-83
2024/01/05 03:55:24;;;;;;;3.87;2.70;;;;;;;;;;5074170;28;20375;-83
2024/01/05 03:57:50;;;;;;;3.75;2.88;;;;;;;;;;5074541;28;20738;-84
2024/01/05 04:00:16;;;;;;;3.60;2.38;;;;;;;;;;5074799;28;20442;-83
2024/01/05 04:02:42;;;;;;;2.67;2.17;;;;;;;;;;5075096;28;20384;-84
2024/01/05 04:05:09;;;;;;;3.13;2.50;;;;;;;;;;5049602;28;20914;-83
2024/01/05 04:07:35;;;;;;;4.88;2.47;;;;;;;;;;5070681;28;20411;-83
2024/01/05 04:10:01;;;;;;;7.95;4.85;;;;;;;;;;5070113;28;20718;-83
2024/01/05 04:12:27;;;;;;;6.35;4.10;;;;;;;;;;5072463;28;20745;-83
2024/01/05 04:14:53;;;;;;;5.03;3.43;;;;;;;;;;5076495;28;20387;-82
2024/01/05 04:17:19;;;;;;;4.25;3.22;;;;;;;;;;5073062;28;20395;-82
2024/01/05 04:19:45;;;;;;;4.93;3.08;;;;;;;;;;5070767;28;20388;-82
2024/01/05 04:22:11;;;;;;;6.57;4.22;;;;;;;;;;5074370;28;20449;-83
2024/01/05 04:24:37;;;;;;;5.75;2.67;;;;;;;;;;5074773;28;20391;-82
2024/01/05 04:27:03;;;;;;;7.13;4.25;;;;;;;;;;5074534;28;20498;-82
2024/01/05 04:29:29;;;;;;;3.30;2.55;;;;;;;;;;5061637;28;20372;-82
2024/01/05 04:31:55;;;;;;;10.70;6.30;;;;;;;;;;5056946;28;20895;-82
2024/01/05 04:34:21;;;;;;;10.85;7.35;;;;;;;;;;5074451;28;20406;-83
2024/01/05 04:36:47;;;;;;;3.85;2.35;;;;;;;;;;5074846;28;20454;-82
2024/01/05 04:39:13;;;;;;;4.53;2.57;;;;;;;;;;5074498;28;20388;-82
2024/01/05 04:41:39;;;;;;;4.28;2.95;;;;;;;;;;5056695;28;21006;-82
2024/01/05 04:44:05;;;;;;;5.45;3.88;;;;;;;;;;5074289;28;20470;-83
2024/01/05 04:46:31;;;;;;;4.30;3.03;;;;;;;;;;5074802;28;20403;-83
2024/01/05 04:48:57;;;;;;;5.80;3.65;;;;;;;;;;5074898;28;20384;-82
2024/01/05 04:51:23;;;;;;;5.15;3.65;;;;;;;;;;5075075;28;20406;-82
2024/01/05 04:53:49;;;;;;;4.80;3.42;;;;;;;;;;5075191;28;20376;-82
2024/01/05 04:56:16;;;;;;;4.03;2.90;;;;;;;;;;5074647;28;20702;-82
2024/01/05 04:58:42;;;;;;;7.68;4.15;;;;;;;;;;5074366;28;20762;-83
2024/01/05 05:01:08;;;;;;;5.97;4.45;;;;;;;;;;5074739;28;20380;-83
2024/01/05 05:03:34;;;;;;;6.72;4.18;;;;;;;;;;5074579;28;20410;-82
2024/01/05 05:06:00;;;;;;;6.70;4.35;;;;;;;;;;5074420;28;20376;-82
2024/01/05 05:08:26;;;;;;;9.82;7.50;;;;;;;;;;5074278;28;20407;-82
2024/01/05 05:10:52;;;;;;;12.70;7.40;;;;;;;;;;5074423;28;20379;-82
2024/01/05 05:13:18;;;;;;;12.30;8.50;;;;;;;;;;5074187;28;20387;-82
2024/01/05 05:15:44;;;;;;;17.75;10.50;;;;;;;;;;5074196;28;20856;-81
2024/01/05 05:18:10;;;;;;;9.18;5.93;;;;;;;;;;5073179;28;20745;-82
2024/01/05 05:20:36;;;;;;;6.93;4.50;;;;;;;;;;5073457;28;20389;-83
2024/01/05 05:23:02;;;;;;;5.67;4.57;;;;;;;;;;5073877;28;20375;-82
2024/01/05 05:25:28;;;;;;;7.18;3.88;;;;;;;;;;5073488;28;20379;-82
2024/01/05 05:27:54;;;;;;;4.15;2.95;;;;;;;;;;5073310;28;20492;-82
2024/01/05 05:30:20;;;;;;;6.30;3.75;;;;;;;;;;5073910;28;20376;-82
2024/01/05 05:32:46;;;;;;;5.72;3.60;;;;;;;;;;5073855;28;20379;-83
2024/01/05 05:35:12;;;;;;;4.53;3.17;;;;;;;;;;5073551;28;20861;-82
2024/01/05 05:37:38;;;;;;;4.55;3.90;;;;;;;;;;5073598;28;20391;-82
2024/01/05 05:40:04;;;;;;;6.53;4.78;;;;;;;;;;5073833;28;20758;-82
2024/01/05 05:42:30;;;;;;;4.72;4.15;;;;;;;;;;5073440;28;20408;-82
2024/01/05 05:44:56;;;;;;;5.57;4.50;;;;;;;;;;5070629;28;20902;-82
2024/01/05 05:47:22;;;;;;;5.47;4.50;;;;;;;;;;5073564;28;20415;-82
2024/01/05 05:49:48;;;;;;;6.03;4.55;;;;;;;;;;5073337;28;20376;-82
2024/01/05 05:52:14;;;;;;;5.93;3.88;;;;;;;;;;5074101;28;20714;-83
2024/01/05 05:54:40;;;;;;;5.70;4.10;;;;;;;;;;5073363;28;20375;-82
2024/01/05 05:57:08;;;;;;;6.78;4.03;;;;;;;;;;5073255;28;20384;-83
2024/01/05 05:59:34;;;;;;;5.70;3.63;;;;;;;;;;5073656;28;20763;-83
2024/01/05 06:02:00;;;;;;;7.22;4.00;;;;;;;;;;5073005;28;20917;-83
2024/01/05 06:04:26;;;;;;;6.15;3.75;;;;;;;;;;5055011;28;20387;-82
2024/01/05 06:06:51;;;;;;;5.47;3.40;;;;;;;;;;5072672;28;20753;-82
2024/01/05 06:09:17;;;;;;;5.15;3.88;;;;;;;;;;5073052;28;20475;-83
2024/01/05 06:11:43;;;;;;;4.90;3.70;;;;;;;;;;5072996;28;20379;-82
2024/01/05 06:14:09;;;;;;;4.78;3.60;;;;;;;;;;5073239;28;20371;-82
2024/01/05 06:16:35;;;;;;;7.57;4.85;;;;;;;;;;5073855;28;20384;-82
2024/01/05 06:19:02;;;;;;;9.48;7.70;;;;;;;;;;5073063;28;20383;-82
2024/01/05 06:21:28;;;;;;;6.38;5.35;;;;;;;;;;5073217;28;20399;-82
2024/01/05 06:23:54;;;;;;;6.47;5.57;;;;;;;;;;5073071;28;20384;-82
2024/01/05 06:26:20;;;;;;;8.38;6.10;;;;;;;;;;5055395;28;20441;-83
2024/01/05 06:28:46;;;;;;;7.20;5.33;;;;;;;;;;5073262;28;20738;-82
2024/01/05 06:31:14;;;;;;;6.10;5.00;;;;;;;;;;5075338;28;20416;-83
2024/01/05 06:33:41;;;;;;;7.78;5.20;;;;;;;;;;5074119;28;20398;-83
2024/01/05 06:36:07;;;;;;;6.00;3.92;;;;;;;;;;5073817;28;20414;-83
2024/01/05 06:38:33;;;;;;;6.43;4.32;;;;;;;;;;5075063;28;20388;-84
2024/01/05 06:41:00;;;;;;;5.65;3.90;;;;;;;;;;5072891;28;20368;-85
2024/01/05 06:43:25;;;;;;;4.88;3.63;;;;;;;;;;5073327;28;20793;-84
2024/01/05 06:45:51;;;;;;;6.30;4.03;;;;;;;;;;5075912;28;20392;-85
2024/01/05 06:48:17;;;;;;;4.75;3.85;;;;;;;;;;5072499;28;20566;-85
2024/01/05 06:50:43;;;;;;;5.82;4.18;;;;;;;;;;5074102;28;20380;-82
2024/01/05 06:53:09;;;;;;;6.30;3.97;;;;;;;;;;5073186;28;20447;-83
2024/01/05 06:55:35;;;;;;;6.77;4.13;;;;;;;;;;5073390;28;20376;-84
2024/01/05 06:58:02;;;;;;;5.43;4.32;;;;;;;;;;5073089;28;20383;-83
2024/01/05 07:00:28;;;;;;;8.48;5.10;;;;;;;;;;5073861;28;21173;-82
2024/01/05 07:02:55;;;;;;;5.93;4.47;;;;;;;;;;5074814;28;20478;-82
2024/01/05 07:05:21;;;;;;;6.47;5.38;;;;;;;;;;5078366;28;20388;-82
2024/01/05 07:07:47;;;;;;;6.78;5.00;;;;;;;;;;5091350;28;20404;-82
2024/01/05 07:10:13;;;;;;;8.27;5.13;;;;;;;;;;5092493;28;20383;-82
2024/01/05 07:12:39;;;;;;;7.15;4.85;;;;;;;;;;5093595;28;20411;-82
2024/01/05 07:15:05;;;;;;;6.78;5.78;;;;;;;;;;5094314;28;20392;-82
2024/01/05 07:17:31;;;;;;;5.60;4.35;;;;;;;;;;5074296;28;20394;-82
2024/01/05 07:19:57;;;;;;;6.40;4.07;;;;;;;;;;5089686;28;20381;-80
2024/01/05 07:22:23;;;;;;;5.60;4.53;;;;;;;;;;5090094;28;20451;-82
2024/01/05 07:24:49;;;;;;;5.50;4.45;;;;;;;;;;5088825;28;20386;-83
2024/01/05 07:27:16;;;;;;;6.15;4.63;;;;;;;;;;5077156;28;20403;-82
2024/01/05 07:29:42;;;;;;;4.85;4.07;;;;;;;;;;5076648;28;20451;-83
2024/01/05 07:32:08;;;;;;;4.68;4.00;;;;;;;;;;5077692;28;20407;-82
2024/01/05 07:34:34;;;;;;;6.57;4.22;;;;;;;;;;5072544;28;20752;-80
2024/01/05 07:37:00;;;;;;;6.95;4.18;;;;;;;;;;5073034;28;20439;-81
2024/01/05 07:39:26;;;;;;;5.93;4.37;;;;;;;;;;5071772;28;20387;-81
2024/01/05 07:41:52;;;;;;;5.65;4.03;;;;;;;;;;5071809;28;20398;-81
2024/01/05 07:44:18;;;;;;;5.88;4.18;;;;;;;;;;5072190;28;20392;-81
2024/01/05 07:46:45;;;;;;;5.43;4.43;;;;;;;;;;5073298;28;20403;-82
2024/01/05 07:49:11;;;;;;;7.70;5.47;;;;;;;;;;5072263;28;20467;-81
2024/01/05 07:51:37;;;;;;;6.47;5.78;;;;;;;;;;5071400;28;20767;-81
2024/01/05 07:54:03;;;;;;;6.93;5.30;;;;;;;;;;5069293;28;20459;-82
2024/01/05 07:56:29;;;;;;;7.75;5.55;;;;;;;;;;5075140;28;20380;-82
2024/01/05 07:58:55;;;;;;;7.50;6.00;;;;;;;;;;5077146;28;20770;-82
2024/01/05 08:01:21;;;;;;;8.52;6.97;;;;;;;;;;5077486;28;20407;-82
2024/01/05 08:03:48;;;;;;;9.15;7.10;;;;;;;;;;5077507;28;20765;-82
2024/01/05 08:06:20;;;;;;;6.40;5.10;;;;;;;;;;5078094;28;20379;-82
2024/01/05 08:08:47;;;;;;;8.38;6.47;;;;;;;;;;5078789;28;20423;-82
2024/01/05 08:11:16;;;;;;;9.50;6.47;;;;;;;;;;5078804;28;20368;-83
2024/01/05 08:13:42;;;;;;;8.73;6.63;;;;;;;;;;5079016;28;20375;-82
2024/01/05 08:16:08;;;;;;;8.45;6.13;;;;;;;;;;5077704;28;20384;-82
2024/01/05 08:18:34;;;;;;;8.85;6.35;;;;;;;;;;5078059;28;20862;-82
2024/01/05 08:21:01;;;;;;;6.25;5.65;;;;;;;;;;5078502;28;20386;-82
2024/01/05 08:23:27;;;;;;;7.80;5.57;;;;;;;;;;5078749;28;20384;-81
2024/01/05 08:25:53;;;;;;;6.70;4.97;;;;;;;;;;5078752;28;20951;-81
2024/01/05 08:28:19;;;;;;;8.15;5.45;;;;;;;;;;5078087;28;20427;-81
2024/01/05 08:30:45;;;;;;;8.07;4.97;;;;;;;;;;5078295;28;20407;-82
2024/01/05 08:33:11;;;;;;;26.35;11.98;;;;;;;;;;5079316;28;20387;-83
2024/01/05 08:35:37;;;;;;;12.63;7.33;;;;;;;;;;5079413;28;20380;-83
2024/01/05 08:38:04;;;;;;;10.40;5.85;;;;;;;;;;5079194;28;20452;-82
2024/01/05 08:40:30;;;;;;;7.18;5.32;;;;;;;;;;5080591;28;20485;-83
2024/01/05 08:42:57;;;;;;;9.98;6.45;;;;;;;;;;5080255;28;20421;-82
2024/01/05 08:45:23;;;;;;;10.40;6.00;;;;;;;;;;5080122;28;20395;-82
2024/01/05 08:47:49;;;;;;;10.50;6.70;;;;;;;;;;5078249;28;20535;-83
2024/01/05 08:50:18;;;;;;;7.63;5.88;;;;;;;;;;5061204;28;20395;-82
2024/01/05 08:52:45;;;;;;;7.23;5.57;;;;;;;;;;5080583;28;20380;-82
2024/01/05 08:55:14;;;;;;;8.23;5.53;;;;;;;;;;5085377;28;20368;-81
2024/01/05 08:57:40;;;;;;;7.32;5.25;;;;;;;;;;5077384;28;20476;-83
2024/01/05 09:00:09;;;;;;;7.55;5.40;;;;;;;;;;5080094;28;20391;-82
2024/01/05 09:02:36;;;;;;;7.32;6.32;;;;;;;;;;5078588;28;20376;-83
2024/01/05 09:05:04;;;;;;;6.65;5.60;;;;;;;;;;5076703;28;20388;-82
2024/01/05 09:07:30;;;;;;;11.32;6.35;;;;;;;;;;5079524;28;20869;-83
2024/01/05 09:09:56;;;;;;;10.65;5.90;;;;;;;;;;5080549;28;20383;-83
2024/01/05 09:12:22;;;;;;;8.98;5.88;;;;;;;;;;5066183;28;20372;-83
2024/01/05 09:14:48;;;;;;;6.68;5.72;;;;;;;;;;5079255;28;20395;-82
2024/01/05 09:17:14;;;;;;;9.27;5.45;;;;;;;;;;5079176;28;20380;-82
2024/01/05 09:19:40;;;;;;;7.18;5.50;;;;;;;;;;5074639;28;20387;-82
2024/01/05 09:22:07;;;;;;;7.30;6.10;;;;;;;;;;5075315;28;20867;-83
2024/01/05 09:24:33;;;;;;;7.97;6.05;;;;;;;;;;5079050;28;20383;-83
2024/01/05 09:27:02;;;;;;;7.43;5.88;;;;;;;;;;5078490;28;20407;-83
2024/01/05 09:29:28;;;;;;;6.15;5.00;;;;;;;;;;5079632;28;20375;-82
2024/01/05 09:31:54;;;;;;;7.82;5.38;;;;;;;;;;5081607;28;20803;-82
2024/01/05 09:34:20;;;;;;;6.43;5.20;;;;;;;;;;5079132;28;20380;-83
2024/01/05 09:36:46;;;;;;;5.80;4.97;;;;;;;;;;5078790;28;20384;-83
2024/01/05 09:39:12;;;;;;;7.40;5.47;;;;;;;;;;5078899;28;20387;-83
2024/01/05 09:41:41;;;;;;;6.70;6.00;;;;;;;;;;5078897;28;20403;-82
2024/01/05 09:44:07;;;;;;;10.52;6.97;;;;;;;;;;5078790;28;20383;-82
2024/01/05 09:46:33;;;;;;;8.10;6.20;;;;;;;;;;5075802;28;20467;-82
2024/01/05 09:49:01;;;;;;;6.70;5.65;;;;;;;;;;5079448;28;20422;-82
2024/01/05 09:51:32;;;;;;;10.00;5.75;;;;;;;;;;5078509;28;20371;-82
2024/01/05 09:53:59;;;;;;;7.00;6.30;;;;;;;;;;5079233;28;20730;-83
2024/01/05 09:56:26;;;;;;;7.00;5.93;;;;;;;;;;5078612;28;20387;-82
2024/01/05 09:58:52;;;;;;;7.50;6.30;;;;;;;;;;5078341;28;20401;-82
2024/01/05 10:01:28;;;;;;;7.95;6.10;;;;;;;;;;5078775;28;20403;-82
2024/01/05 10:03:55;;;;;;;9.38;6.65;;;;;;;;;;5078214;28;20372;-83
2024/01/05 10:06:21;;;;;;;14.63;11.02;;;;;;;;;;5078715;28;20372;-83
2024/01/05 10:08:47;;;;;;;7.85;6.75;;;;;;;;;;5078924;28;20429;-82
2024/01/05 10:11:27;;;;;;;8.60;7.53;;;;;;;;;;5078737;28;20388;-83
2024/01/05 10:13:54;;;;;;;7.20;5.87;;;;;;;;;;5060099;28;20407;-82
2024/01/05 10:16:23;;;;;;;6.57;5.72;;;;;;;;;;5078652;28;20390;-82
2024/01/05 10:18:50;;;;;;;8.07;5.88;;;;;;;;;;5077294;28;20376;-82
2024/01/05 10:21:18;;;;;;;8.70;6.07;;;;;;;;;;5071235;28;20379;-82
2024/01/05 10:23:44;;;;;;;7.65;5.93;;;;;;;;;;5074897;28;20384;-83
2024/01/05 10:26:19;;;;;;;7.10;6.00;;;;;;;;;;5077684;28;20733;-84
2024/01/05 10:28:48;;;;;;;8.07;6.20;;;;;;;;;;5076755;28;20399;-84
2024/01/05 10:31:15;;;;;;;8.40;6.07;;;;;;;;;;5074892;28;20888;-83
2024/01/05 10:34:01;;;;;;;8.50;6.30;;;;;;;;;;5073080;28;20416;-83
2024/01/05 10:36:27;;;;;;;10.57;6.65;;;;;;;;;;5054219;28;20783;-83
2024/01/05 10:38:53;;;;;;;32.90;15.85;;;;;;;;;;5051694;28;20401;-80
2024/01/05 10:41:21;;;;;;;8.48;7.18;;;;;;;;;;5074840;28;20380;-83
2024/01/05 10:43:47;;;;;;;7.82;6.50;;;;;;;;;;5072534;28;20392;-83
2024/01/05 10:46:15;;;;;;;9.55;6.30;;;;;;;;;;5073181;28;20387;-82
2024/01/05 10:48:41;;;;;;;12.05;7.43;;;;;;;;;;5050410;28;20408;-82
2024/01/05 10:51:07;;;;;;;10.35;7.95;;;;;;;;;;5074061;28;20462;-83
2024/01/05 10:53:35;;;;;;;8.50;7.03;;;;;;;;;;5074728;28;20383;-84
2024/01/05 10:56:02;;;;;;;9.97;7.77;;;;;;;;;;5071261;28;20923;-84
2024/01/05 10:58:28;;;;;;;9.50;8.18;;;;;;;;;;5065064;28;20383;-84
2024/01/05 11:00:57;;;;;;;9.47;8.07;;;;;;;;;;5046800;28;21082;-82
2024/01/05 11:03:24;;;;;;;9.40;7.40;;;;;;;;;;5066621;28;20426;-82
2024/01/05 11:05:51;;;;;;;7.77;6.53;;;;;;;;;;5068379;28;20411;-82
2024/01/05 11:08:36;;;;;;;9.45;6.32;;;;;;;;;;5048965;28;20447;-83
2024/01/05 11:11:08;;;;;;;8.75;6.68;;;;;;;;;;5069305;28;20394;-83
2024/01/05 11:13:49;;;;;;;8.30;6.00;;;;;;;;;;5066561;28;20382;-82
2024/01/05 11:16:21;;;;;;;9.50;7.45;;;;;;;;;;5070333;28;20383;-81
2024/01/05 11:19:06;;;;;;;7.90;6.65;;;;;;;;;;5053426;28;20378;-82
2024/01/05 11:21:47;;;;;;;8.30;6.25;;;;;;;;;;5069966;28;20384;-79
2024/01/05 11:24:14;;;;;;;7.68;6.60;;;;;;;;;;5070330;28;20416;-82
2024/01/05 11:26:42;;;;;;;6.68;5.90;;;;;;;;;;5051522;28;20399;-83
2024/01/05 11:29:15;;;;;;;8.60;6.82;;;;;;;;;;5057838;28;20411;-81
2024/01/05 11:31:47;;;;;;;9.70;7.20;;;;;;;;;;5078178;28;20380;-81
2024/01/05 11:34:31;;;;;;;10.10;8.05;;;;;;;;;;5078314;28;20857;-82
2024/01/05 11:36:58;;;;;;;10.45;7.93;;;;;;;;;;5076865;28;20406;-81
2024/01/05 11:39:44;;;;;;;10.05;7.95;;;;;;;;;;5077984;28;20394;-81
2024/01/05 11:42:10;;;;;;;9.45;7.35;;;;;;;;;;5079178;28;20403;-82
2024/01/05 11:44:36;;;;;;;8.32;7.30;;;;;;;;;;5079029;28;20391;-81
2024/01/05 11:47:03;;;;;;;7.80;6.68;;;;;;;;;;5076460;28;20399;-81
2024/01/05 11:49:39;;;;;;;9.40;7.40;;;;;;;;;;5071636;28;20397;-82
2024/01/05 11:52:05;;;;;;;9.35;7.30;;;;;;;;;;5076293;28;20367;-82
2024/01/05 11:54:32;;;;;;;7.85;6.63;;;;;;;;;;5079670;28;20430;-81
2024/01/05 11:56:59;;;;;;;12.03;8.63;;;;;;;;;;5079231;28;20875;-81
2024/01/05 11:59:25;;;;;;;10.33;8.50;;;;;;;;;;5079637;28;20832;-81
2024/01/05 12:01:53;;;;;;;8.60;7.70;;;;;;;;;;5079542;28;20387;-81
2024/01/05 12:04:19;;;;;;;11.45;7.80;;;;;;;;;;5079838;28;20387;-82
2024/01/05 12:06:54;;;;;;;10.52;9.23;;;;;;;;;;5079799;28;20376;-81
2024/01/05 12:09:20;;;;;;;10.55;8.43;;;;;;;;;;5079409;28;20387;-81
2024/01/05 12:11:47;;;;;;;11.15;8.63;;;;;;;;;;5079854;28;20384;-81
2024/01/05 12:14:25;;;;;;;12.23;8.55;;;;;;;;;;5080005;28;20375;-82
2024/01/05 12:16:51;;;;;;;14.50;10.10;;;;;;;;;;5079277;28;20466;-81
2024/01/05 12:19:23;;;;;;;11.95;10.63;;;;;;;;;;5079693;28;20391;-82
2024/01/05 12:21:52;;;;;;;12.43;9.95;;;;;;;;;;5079404;28;20868;-82
2024/01/05 12:24:18;;;;;;;14.05;10.65;;;;;;;;;;5061608;28;20403;-82
2024/01/05 12:26:45;;;;;;;11.13;9.20;;;;;;;;;;5078960;28;20384;-80
2024/01/05 12:29:11;;;;;;;10.60;8.40;;;;;;;;;;5078858;28;20418;-81
2024/01/05 12:31:39;;;;;;;8.68;7.63;;;;;;;;;;5079732;28;20887;-81
2024/01/05 12:34:06;;;;;;;10.35;8.57;;;;;;;;;;5079455;28;20462;-81
2024/01/05 12:36:32;;;;;;;9.70;8.20;;;;;;;;;;5060186;28;20386;-82
2024/01/05 12:39:20;;;;;;;8.68;7.72;;;;;;;;;;5079894;28;20468;-80
2024/01/05 12:41:48;;;;;;;11.00;9.23;;;;;;;;;;5076851;28;20477;-81
2024/01/05 12:44:17;;;;;;;9.10;7.50;;;;;;;;;;5077190;28;20402;-80
2024/01/05 12:46:45;;;;;;;17.75;14.40;;;;;;;;;;5076897;28;20386;-81
2024/01/05 12:49:21;;;;;;;14.43;12.90;;;;;;;;;;5077627;28;20379;-81
2024/01/05 12:51:48;;;;;;;10.25;7.95;;;;;;;;;;5071294;28;20374;-81
2024/01/05 12:54:14;;;;;;;10.82;9.23;;;;;;;;;;5076844;28;20413;-80
2024/01/05 12:56:44;;;;;;;31.70;23.08;;;;;;;;;;5076989;28;20391;-81
2024/01/05 12:59:18;;;;;;;10.57;8.55;;;;;;;;;;5076625;28;20408;-81
2024/01/05 13:01:44;;;;;;;11.40;8.40;;;;;;;;;;5076724;28;20845;-80
2024/01/05 13:04:10;;;;;;;9.70;8.07;;;;;;;;;;5076799;28;20869;-80
2024/01/05 13:06:38;;;;;;;8.82;7.93;;;;;;;;;;5076896;28;20376;-80
2024/01/05 13:09:04;;;;;;;11.07;8.65;;;;;;;;;;5076583;28;20729;-81
2024/01/05 13:11:30;;;;;;;12.68;8.90;;;;;;;;;;5076435;28;20466;-81
2024/01/05 13:13:56;;;;;;;11.02;8.35;;;;;;;;;;5076995;28;20372;-81
2024/01/05 13:16:22;;;;;;;9.40;8.48;;;;;;;;;;5076929;28;20947;-81
2024/01/05 13:18:48;;;;;;;11.32;8.45;;;;;;;;;;5073554;28;20380;-81
2024/01/05 13:21:14;;;;;;;11.25;8.30;;;;;;;;;;5076801;28;20384;-81
2024/01/05 13:23:42;;;;;;;10.82;8.10;;;;;;;;;;5077657;28;20383;-80
2024/01/05 13:26:09;;;;;;;8.30;7.00;;;;;;;;;;5077134;28;20418;-81
2024/01/05 13:28:40;;;;;;;9.75;8.70;;;;;;;;;;5053106;28;20406;-81
2024/01/05 13:31:06;;;;;;;12.88;7.75;;;;;;;;;;5076409;28;20928;-80
2024/01/05 13:33:32;;;;;;;11.82;8.70;;;;;;;;;;5074793;28;20383;-81
2024/01/05 13:35:58;;;;;;;10.88;8.38;;;;;;;;;;5075908;28;20376;-80
2024/01/05 13:38:24;;;;;;;12.33;8.13;;;;;;;;;;5073560;28;20881;-80
2024/01/05 13:40:50;;;;;;;9.80;8.43;;;;;;;;;;5070462;28;20384;-81
2024/01/05 13:43:16;;;;;;;10.85;7.63;;;;;;;;;;5069880;28;20484;-82
2024/01/05 13:45:42;;;;;;;11.75;7.93;;;;;;;;;;5074496;28;20422;-81
2024/01/05 13:48:08;;;;;;;8.45;7.20;;;;;;;;;;5073856;28;20456;-80
2024/01/05 13:50:34;;;;;;;9.20;7.45;;;;;;;;;;5074620;28;20858;-80
2024/01/05 13:53:03;;;;;;;10.70;7.93;;;;;;;;;;5072353;28;20428;-81
2024/01/05 13:55:29;;;;;;;10.63;8.23;;;;;;;;;;5077025;28;20459;-81
2024/01/05 13:57:55;;;;;;;9.70;8.50;;;;;;;;;;5075673;28;20806;-80
2024/01/05 14:00:21;;;;;;;12.70;9.23;;;;;;;;;;5075008;28;20380;-81
2024/01/05 14:02:47;;;;;;;12.35;9.07;;;;;;;;;;5061809;28;20459;-80
2024/01/05 14:05:13;;;;;;;11.10;8.93;;;;;;;;;;5074910;28;20418;-81
2024/01/05 14:07:39;;;;;;;10.65;8.57;;;;;;;;;;5061491;28;20765;-81
2024/01/05 14:10:05;;;;;;;10.85;8.95;;;;;;;;;;5073578;28;20387;-81
2024/01/05 14:12:32;;;;;;;12.23;9.70;;;;;;;;;;5073960;28;20372;-82
2024/01/05 14:14:58;;;;;;;13.77;10.00;;;;;;;;;;5074749;28;20382;-81
2024/01/05 14:17:24;;;;;;;14.30;9.85;;;;;;;;;;5074611;28;20391;-81
2024/01/05 14:19:50;;;;;;;12.23;10.03;;;;;;;;;;5074668;28;20387;-81
2024/01/05 14:22:16;;;;;;;15.07;11.52;;;;;;;;;;5074938;28;20872;-81
2024/01/05 14:24:42;;;;;;;12.07;10.52;;;;;;;;;;5072892;28;20414;-81
2024/01/05 14:27:08;;;;;;;12.90;10.18;;;;;;;;;;5072338;28;20399;-81
2024/01/05 14:29:34;;;;;;;13.88;11.52;;;;;;;;;;5072931;28;20384;-81
2024/01/05 14:32:03;;;;;;;16.67;12.35;;;;;;;;;;5071677;28;20687;-81
2024/01/05 14:34:29;;;;;;;18.63;13.85;;;;;;;;;;5073191;28;20426;-81
2024/01/05 14:36:55;;;;;;;18.00;14.25;;;;;;;;;;5073271;28;20496;-81
2024/01/05 14:39:22;;;;;;;18.75;13.43;;;;;;;;;;5072046;28;20387;-81